sensor_id;sensor_type;location;lat;lon;timestamp;pressure;altitude;pressure_sealevel;temperature;humidity
9289;BME280;4683;50.864;12.086;2024-01-15T00:00:47;97424.84;;;1.77;100.00
9289;BME280;4683;50.864;12.086;2024-01-15T00:03:18;97426.94;;;1.82;100.00
9289;BME280;4683;50.864;12.086;2024-01-15T00:05:49;97421.44;;;1.76;100.00
9289;BME280;4683;50.864;12.086;2024-01-15T00:08:18;97423.09;;;1.77;100.00
9289;BME280;4683;50.864;12.086;2024-01-15T00:10:47;97413.94;;;1.82;100.00
9289;BME280;4683;50.864;12.086;2024-01-15T00:13:16;97420.78;;;1.83;100.00
9289;BME280;4683;50.864;12.086;2024-01-15T00:15:47;97425.03;;;1.75;100.00
9289;BME280;4683;50.864;12.086;2024-01-15T00:18:16;97425.50;;;1.87;100.00
9289;BME280;4683;50.864;12.086;2024-01-15T00:21:10;97414.28;;;1.87;100.00
9289;BME280;4683;50.864;12.086;2024-01-15T00:23:42;97418.50;;;1.88;100.00
9289;BME280;4683;50.864;12.086;2024-01-15T00:26:13;97407.91;;;1.97;100.00
9289;BME280;4683;50.864;12.086;2024-01-15T00:28:46;97408.91;;;1.96;100.00
9289;BME280;4683;50.864;12.086;2024-01-15T00:31:17;97408.91;;;1.96;100.00
9289;BME280;4683;50.864;12.086;2024-01-15T00:33:46;97414.59;;;1.84;100.00
9289;BME280;4683;50.864;12.086;2024-01-15T00:36:17;97412.66;;;1.86;100.00
9289;BME280;4683;50.864;12.086;2024-01-15T00:38:46;97405.84;;;1.76;100.00
9289;BME280;4683;50.864;12.086;2024-01-15T00:41:16;97409.44;;;1.75;100.00
9289;BME280;4683;50.864;12.086;2024-01-15T00:44:01;97409.59;;;1.82;100.00
9289;BME280;4683;50.864;12.086;2024-01-15T00:46:47;97405.84;;;1.76;100.00
9289;BME280;4683;50.864;12.086;2024-01-15T00:49:16;97404.53;;;1.81;100.00
9289;BME280;4683;50.864;12.086;2024-01-15T00:51:49;97402.25;;;1.86;100.00
9289;BME280;4683;50.864;12.086;2024-01-15T00:54:18;97404.88;;;1.77;100.00
9289;BME280;4683;50.864;12.086;2024-01-15T00:56:47;97405.19;;;1.83;100.00
9289;BME280;4683;50.864;12.086;2024-01-15T00:59:16;97403.25;;;1.76;100.00
9289;BME280;4683;50.864;12.086;2024-01-15T01:02:03;97401.00;;;1.73;100.00
9289;BME280;4683;50.864;12.086;2024-01-15T01:04:31;97414.94;;;1.81;100.00
9289;BME280;4683;50.864;12.086;2024-01-15T01:07:01;97417.03;;;1.77;100.00
9289;BME280;4683;50.864;12.086;2024-01-15T01:13:37;97399.84;;;1.68;100.00
9289;BME280;4683;50.864;12.086;2024-01-15T01:16:17;97390.44;;;1.75;100.00
9289;BME280;4683;50.864;12.086;2024-01-15T01:18:45;97389.44;;;1.68;100.00
9289;BME280;4683;50.864;12.086;2024-01-15T01:21:13;97395.50;;;1.68;100.00
9289;BME280;4683;50.864;12.086;2024-01-15T01:23:43;97393.19;;;1.73;100.00
9289;BME280;4683;50.864;12.086;2024-01-15T01:26:16;97398.41;;;1.73;100.00
9289;BME280;4683;50.864;12.086;2024-01-15T01:28:44;97397.25;;;1.76;100.00
9289;BME280;4683;50.864;12.086;2024-01-15T01:31:12;97401.00;;;1.73;100.00
9289;BME280;4683;50.864;12.086;2024-01-15T01:33:41;97396.59;;;1.74;100.00
9289;BME280;4683;50.864;12.086;2024-01-15T01:36:09;97406.50;;;1.70;100.00
9289;BME280;4683;50.864;12.086;2024-01-15T01:38:39;97392.53;;;1.71;100.00
9289;BME280;4683;50.864;12.086;2024-01-15T01:41:09;97396.31;;;1.69;100.00
9289;BME280;4683;50.864;12.086;2024-01-15T01:43:38;97387.03;;;1.66;100.00
9289;BME280;4683;50.864;12.086;2024-01-15T01:46:06;97397.91;;;1.62;100.00
9289;BME280;4683;50.864;12.086;2024-01-15T01:48:36;97393.38;;;1.64;100.00
9289;BME280;4683;50.864;12.086;2024-01-15T01:51:05;97406.16;;;1.82;100.00
9289;BME280;4683;50.864;12.086;2024-01-15T01:53:35;97396.75;;;1.72;100.00
9289;BME280;4683;50.864;12.086;2024-01-15T01:56:06;97398.59;;;1.64;100.00
9289;BME280;4683;50.864;12.086;2024-01-15T01:58:37;97395.50;;;1.68;100.00
9289;BME280;4683;50.864;12.086;2024-01-15T02:01:07;97395.50;;;1.68;100.00
9289;BME280;4683;50.864;12.086;2024-01-15T02:03:35;97397.75;;;1.63;100.00
9289;BME280;4683;50.864;12.086;2024-01-15T02:06:04;97399.72;;;1.61;100.00
9289;BME280;4683;50.864;12.086;2024-01-15T02:08:33;97384.13;;;1.45;100.00
9289;BME280;4683;50.864;12.086;2024-01-15T02:11:02;97385.78;;;1.46;100.00
9289;BME280;4683;50.864;12.086;2024-01-15T02:13:30;97389.69;;;1.42;100.00
9289;BME280;4683;50.864;12.086;2024-01-15T02:16:00;97387.41;;;1.39;100.00
9289;BME280;4683;50.864;12.086;2024-01-15T02:18:28;97390.00;;;1.39;100.00
9289;BME280;4683;50.864;12.086;2024-01-15T02:20:57;97390.97;;;1.38;100.00
9289;BME280;4683;50.864;12.086;2024-01-15T02:23:30;97376.38;;;1.29;100.00
9289;BME280;4683;50.864;12.086;2024-01-15T02:25:59;97390.19;;;1.29;100.00
9289;BME280;4683;50.864;12.086;2024-01-15T02:28:27;97374.09;;;1.25;100.00
9289;BME280;4683;50.864;12.086;2024-01-15T02:30:57;97385.16;;;1.03;100.00
9289;BME280;4683;50.864;12.086;2024-01-15T02:33:25;97381.91;;;1.17;100.00
9289;BME280;4683;50.864;12.086;2024-01-15T02:35:54;97376.22;;;1.22;100.00
9289;BME280;4683;50.864;12.086;2024-01-15T02:38:23;97387.44;;;1.14;100.00
9289;BME280;4683;50.864;12.086;2024-01-15T02:40:53;97384.97;;;0.88;100.00
9289;BME280;4683;50.864;12.086;2024-01-15T02:43:21;97382.69;;;0.85;100.00
9289;BME280;4683;50.864;12.086;2024-01-15T02:45:50;97375.25;;;0.90;100.00
9289;BME280;4683;50.864;12.086;2024-01-15T02:48:19;97378.00;;;0.89;100.00
9289;BME280;4683;50.864;12.086;2024-01-15T02:50:47;97369.41;;;0.88;100.00
9289;BME280;4683;50.864;12.086;2024-01-15T02:53:16;97381.25;;;0.91;100.00
9289;BME280;4683;50.864;12.086;2024-01-15T02:55:55;97378.00;;;0.89;100.00
9289;BME280;4683;50.864;12.086;2024-01-15T02:58:26;97373.44;;;0.91;100.00
9289;BME280;4683;50.864;12.086;2024-01-15T03:00:55;97371.03;;;0.97;100.00
9289;BME280;4683;50.864;12.086;2024-01-15T03:03:23;97375.59;;;0.95;100.00
9289;BME280;4683;50.864;12.086;2024-01-15T03:05:52;97375.75;;;1.02;100.00
9289;BME280;4683;50.864;12.086;2024-01-15T03:08:23;97368.94;;;0.93;100.00
9289;BME280;4683;50.864;12.086;2024-01-15T03:10:53;97365.84;;;0.97;100.00
9289;BME280;4683;50.864;12.086;2024-01-15T03:13:22;97362.13;;;0.92;100.00
9289;BME280;4683;50.864;12.086;2024-01-15T03:15:50;97365.66;;;0.91;100.00
9289;BME280;4683;50.864;12.086;2024-01-15T03:18:20;97369.25;;;0.90;100.00
9289;BME280;4683;50.864;12.086;2024-01-15T03:21:43;97367.47;;;0.82;100.00
9289;BME280;4683;50.864;12.086;2024-01-15T03:24:12;97375.09;;;1.00;100.00
9289;BME280;4683;50.864;12.086;2024-01-15T03:26:42;97380.63;;;0.97;100.00
9289;BME280;4683;50.864;12.086;2024-01-15T03:29:11;97378.97;;;1.04;100.00
9289;BME280;4683;50.864;12.086;2024-01-15T03:31:41;97384.53;;;1.09;100.00
9289;BME280;4683;50.864;12.086;2024-01-15T03:34:09;97384.53;;;1.09;100.00
9289;BME280;4683;50.864;12.086;2024-01-15T03:36:38;97394.22;;;0.99;100.00
9289;BME280;4683;50.864;12.086;2024-01-15T03:39:07;97373.63;;;1.06;100.00
9289;BME280;4683;50.864;12.086;2024-01-15T03:41:37;97381.91;;;1.01;100.00
9289;BME280;4683;50.864;12.086;2024-01-15T03:44:08;97383.84;;;0.99;100.00
9289;BME280;4683;50.864;12.086;2024-01-15T03:46:36;97366.50;;;0.91;100.00
9289;BME280;4683;50.864;12.086;2024-01-15T03:49:05;97374.44;;;0.90;100.00
9289;BME280;4683;50.864;12.086;2024-01-15T03:51:39;97370.38;;;0.87;100.00
9289;BME280;4683;50.864;12.086;2024-01-15T03:54:07;97364.06;;;0.73;100.00
9289;BME280;4683;50.864;12.086;2024-01-15T03:56:36;97367.59;;;0.72;100.00
9289;BME280;4683;50.864;12.086;2024-01-15T03:59:04;97361.94;;;0.85;100.00
9289;BME280;4683;50.864;12.086;2024-01-15T04:01:36;97367.94;;;0.86;100.00
9289;BME280;4683;50.864;12.086;2024-01-15T04:04:08;97359.19;;;0.87;100.00
9289;BME280;4683;50.864;12.086;2024-01-15T04:06:38;97364.53;;;0.93;100.00
9289;BME280;4683;50.864;12.086;2024-01-15T04:09:07;97356.94;;;0.92;100.00
9289;BME280;4683;50.864;12.086;2024-01-15T04:11:41;97365.34;;;0.94;100.00
9289;BME280;4683;50.864;12.086;2024-01-15T04:14:16;97366.34;;;1.01;100.00
9289;BME280;4683;50.864;12.086;2024-01-15T04:16:48;97382.53;;;0.95;100.00
9289;BME280;4683;50.864;12.086;2024-01-15T04:19:17;97374.94;;;1.01;100.00
9289;BME280;4683;50.864;12.086;2024-01-15T04:21:51;97375.75;;;1.02;100.00
9289;BME280;4683;50.864;12.086;2024-01-15T04:24:19;97378.34;;;1.02;100.00
9289;BME280;4683;50.864;12.086;2024-01-15T04:26:53;97376.06;;;0.99;100.00
9289;BME280;4683;50.864;12.086;2024-01-15T04:29:22;97379.13;;;0.94;100.00
9289;BME280;4683;50.864;12.086;2024-01-15T04:31:53;97383.84;;;0.99;100.00
9289;BME280;4683;50.864;12.086;2024-01-15T04:34:21;97382.56;;;1.03;100.00
9289;BME280;4683;50.864;12.086;2024-01-15T04:36:57;97384.53;;;1.09;100.00
9289;BME280;4683;50.864;12.086;2024-01-15T04:39:25;97388.06;;;1.08;100.00
9289;BME280;4683;50.864;12.086;2024-01-15T04:41:54;97389.69;;;1.01;100.00
9289;BME280;4683;50.864;12.086;2024-01-15T04:44:24;97385.63;;;1.07;100.00
9289;BME280;4683;50.864;12.086;2024-01-15T04:46:56;97396.69;;;1.00;100.00
9289;BME280;4683;50.864;12.086;2024-01-15T04:49:25;97397.81;;;0.98;100.00
9289;BME280;4683;50.864;12.086;2024-01-15T04:51:57;97396.03;;;1.07;100.00
9289;BME280;4683;50.864;12.086;2024-01-15T04:54:27;97403.81;;;1.07;100.00
9289;BME280;4683;50.864;12.086;2024-01-15T04:56:58;97401.06;;;1.16;100.00
9289;BME280;4683;50.864;12.086;2024-01-15T04:59:26;97397.81;;;1.14;100.00
9289;BME280;4683;50.864;12.086;2024-01-15T05:01:57;97407.53;;;1.20;100.00
9289;BME280;4683;50.864;12.086;2024-01-15T05:04:26;97403.31;;;1.11;100.00
9289;BME280;4683;50.864;12.086;2024-01-15T05:06:57;97414.69;;;1.18;100.00
9289;BME280;4683;50.864;12.086;2024-01-15T05:09:25;97404.63;;;1.23;100.00
9289;BME280;4683;50.864;12.086;2024-01-15T05:11:54;97396.81;;;1.32;100.00
9289;BME280;4683;50.864;12.086;2024-01-15T05:14:23;97401.53;;;1.20;100.00
9289;BME280;4683;50.864;12.086;2024-01-15T05:16:53;97397.47;;;1.17;100.00
9289;BME280;4683;50.864;12.086;2024-01-15T05:19:26;97392.13;;;1.19;100.00
9289;BME280;4683;50.864;12.086;2024-01-15T05:21:59;97386.59;;;1.30;100.00
9289;BME280;4683;50.864;12.086;2024-01-15T05:24:33;97389.38;;;1.29;100.00
9289;BME280;4683;50.864;12.086;2024-01-15T05:27:21;97396.19;;;1.21;100.00
9289;BME280;4683;50.864;12.086;2024-01-15T05:29:51;97387.75;;;1.19;100.00
9289;BME280;4683;50.864;12.086;2024-01-15T05:32:34;97392.28;;;1.25;100.00
9289;BME280;4683;50.864;12.086;2024-01-15T05:35:07;97389.06;;;1.23;100.00
9289;BME280;4683;50.864;12.086;2024-01-15T05:37:45;97381.56;;;1.20;100.00
9289;BME280;4683;50.864;12.086;2024-01-15T05:40:14;97377.84;;;1.15;100.00
9289;BME280;4683;50.864;12.086;2024-01-15T05:42:45;97373.28;;;1.17;100.00
9289;BME280;4683;50.864;12.086;2024-01-15T05:45:15;97371.84;;;1.06;100.00
9289;BME280;4683;50.864;12.086;2024-01-15T05:47:47;97362.13;;;1.00;100.00
9289;BME280;4683;50.864;12.086;2024-01-15T05:50:20;97358.84;;;0.90;100.00
9289;BME280;4683;50.864;12.086;2024-01-15T05:52:50;97350.41;;;1.04;100.00
9289;BME280;4683;50.864;12.086;2024-01-15T05:55:56;97359.03;;;1.05;100.00
9289;BME280;4683;50.864;12.086;2024-01-15T05:58:41;97354.81;;;0.87;100.00
9289;BME280;4683;50.864;12.086;2024-01-15T06:01:28;97356.44;;;0.64;100.00
9289;BME280;4683;50.864;12.086;2024-01-15T06:03:57;97358.53;;;0.76;100.00
9289;BME280;4683;50.864;12.086;2024-01-15T06:06:46;97354.50;;;0.82;100.00
9289;BME280;4683;50.864;12.086;2024-01-15T06:09:28;97346.22;;;0.87;100.00
9289;BME280;4683;50.864;12.086;2024-01-15T06:12:15;97361.44;;;0.90;100.00
9289;BME280;4683;50.864;12.086;2024-01-15T06:15:01;97353.53;;;0.83;100.00
9289;BME280;4683;50.864;12.086;2024-01-15T06:17:36;97355.63;;;0.88;100.00
9289;BME280;4683;50.864;12.086;2024-01-15T06:20:20;97361.13;;;0.85;100.00
9289;BME280;4683;50.864;12.086;2024-01-15T06:23:08;97344.28;;;0.97;100.00
9289;BME280;4683;50.864;12.086;2024-01-15T06:25:58;97358.22;;;0.96;100.00
9289;BME280;4683;50.864;12.086;2024-01-15T06:28:36;97351.75;;;0.92;100.00
9289;BME280;4683;50.864;12.086;2024-01-15T06:31:12;97342.81;;;0.94;100.00
9289;BME280;4683;50.864;12.086;2024-01-15T06:33:42;97350.44;;;0.88;100.00
9289;BME280;4683;50.864;12.086;2024-01-15T06:36:30;97344.25;;;0.89;100.00
9289;BME280;4683;50.864;12.086;2024-01-15T06:39:01;97348.47;;;0.90;100.00
9289;BME280;4683;50.864;12.086;2024-01-15T06:41:48;97350.59;;;0.86;100.00
9289;BME280;4683;50.864;12.086;2024-01-15T06:44:18;97347.66;;;0.89;100.00
9289;BME280;4683;50.864;12.086;2024-01-15T06:47:01;97356.44;;;0.80;100.00
9289;BME280;4683;50.864;12.086;2024-01-15T06:49:48;97357.88;;;0.91;100.00
9289;BME280;4683;50.864;12.086;2024-01-15T06:52:25;97354.00;;;0.70;100.00
9289;BME280;4683;50.864;12.086;2024-01-15T06:55:08;97350.28;;;0.73;100.00
9289;BME280;4683;50.864;12.086;2024-01-15T06:57:55;97350.41;;;0.71;100.00
9289;BME280;4683;50.864;12.086;2024-01-15T07:00:26;97353.34;;;0.68;100.00
9289;BME280;4683;50.864;12.086;2024-01-15T07:02:55;97363.06;;;0.66;100.00
9289;BME280;4683;50.864;12.086;2024-01-15T07:05:24;97365.31;;;0.61;100.00
9289;BME280;4683;50.864;12.086;2024-01-15T07:07:53;97364.38;;;0.70;100.00
9289;BME280;4683;50.864;12.086;2024-01-15T07:10:26;97363.88;;;0.75;100.00
9289;BME280;4683;50.864;12.086;2024-01-15T07:12:55;97355.13;;;0.76;100.00
9289;BME280;4683;50.864;12.086;2024-01-15T07:15:48;97346.72;;;0.82;100.00
9289;BME280;4683;50.864;12.086;2024-01-15T07:18:36;97358.84;;;0.90;100.00
9289;BME280;4683;50.864;12.086;2024-01-15T07:21:14;97362.91;;;0.84;100.00
9289;BME280;4683;50.864;12.086;2024-01-15T07:23:42;97349.16;;;0.92;100.00
9289;BME280;4683;50.864;12.086;2024-01-15T07:26:17;97372.16;;;0.95;100.00
9289;BME280;4683;50.864;12.086;2024-01-15T07:28:47;97373.00;;;0.95;100.00
9289;BME280;4683;50.864;12.086;2024-01-15T07:31:17;97378.31;;;0.94;100.00
9289;BME280;4683;50.864;12.086;2024-01-15T07:33:47;97376.72;;;1.01;100.00
9289;BME280;4683;50.864;12.086;2024-01-15T07:36:16;97373.66;;;1.14;100.00
9289;BME280;4683;50.864;12.086;2024-01-15T07:38:50;97382.56;;;1.11;100.00
9289;BME280;4683;50.864;12.086;2024-01-15T07:41:20;97368.28;;;1.15;100.00
9289;BME280;4683;50.864;12.086;2024-01-15T07:43:52;97379.63;;;1.06;100.00
9289;BME280;4683;50.864;12.086;2024-01-15T07:46:40;97379.28;;;1.17;100.00
9289;BME280;4683;50.864;12.086;2024-01-15T07:49:09;97372.31;;;1.18;100.00
9289;BME280;4683;50.864;12.086;2024-01-15T07:51:41;97377.69;;;1.16;100.00
9289;BME280;4683;50.864;12.086;2024-01-15T07:54:11;97379.97;;;1.11;100.00
9289;BME280;4683;50.864;12.086;2024-01-15T07:56:56;97376.06;;;0.83;100.00
9289;BME280;4683;50.864;12.086;2024-01-15T07:59:25;97386.28;;;1.00;100.00
9289;BME280;4683;50.864;12.086;2024-01-15T08:02:04;97381.25;;;1.07;100.00
9289;BME280;4683;50.864;12.086;2024-01-15T08:04:33;97387.75;;;1.11;100.00
9289;BME280;4683;50.864;12.086;2024-01-15T08:07:04;97392.63;;;1.14;100.00
9289;BME280;4683;50.864;12.086;2024-01-15T08:09:49;97386.09;;;1.26;100.00
9289;BME280;4683;50.864;12.086;2024-01-15T08:12:39;97389.38;;;1.37;100.00
9289;BME280;4683;50.864;12.086;2024-01-15T08:15:08;97390.97;;;1.30;100.00
9289;BME280;4683;50.864;12.086;2024-01-15T08:17:55;97390.00;;;1.31;100.00
9289;BME280;4683;50.864;12.086;2024-01-15T08:20:25;97383.69;;;1.33;100.00
9289;BME280;4683;50.864;12.086;2024-01-15T08:22:54;97383.19;;;1.38;100.00
9289;BME280;4683;50.864;12.086;2024-01-15T08:25:27;97386.59;;;1.38;100.00
9289;BME280;4683;50.864;12.086;2024-01-15T08:28:05;97381.88;;;1.42;100.00
9289;BME280;4683;50.864;12.086;2024-01-15T08:30:35;97371.16;;;1.45;100.00
9289;BME280;4683;50.864;12.086;2024-01-15T08:33:27;97367.91;;;1.51;100.00
9289;BME280;4683;50.864;12.086;2024-01-15T08:36:10;97361.44;;;1.47;100.00
9289;BME280;4683;50.864;12.086;2024-01-15T08:38:40;97363.41;;;1.37;100.00
9289;BME280;4683;50.864;12.086;2024-01-15T08:41:22;97363.53;;;1.35;100.00
9289;BME280;4683;50.864;12.086;2024-01-15T08:43:54;97364.03;;;1.31;100.00
9289;BME280;4683;50.864;12.086;2024-01-15T08:46:41;97375.41;;;1.46;100.00
9289;BME280;4683;50.864;12.086;2024-01-15T08:49:41;97381.22;;;1.56;100.00
9289;BME280;4683;50.864;12.086;2024-01-15T08:52:19;97372.91;;;1.61;100.00
9289;BME280;4683;50.864;12.086;2024-01-15T08:55:05;97368.84;;;1.66;100.00
9289;BME280;4683;50.864;12.086;2024-01-15T08:57:35;97363.66;;;1.66;100.00
9289;BME280;4683;50.864;12.086;2024-01-15T09:00:09;97358.28;;;1.68;100.00
9289;BME280;4683;50.864;12.086;2024-01-15T09:02:41;97370.50;;;1.59;100.00
9289;BME280;4683;50.864;12.086;2024-01-15T09:05:11;97372.91;;;1.61;100.00
9289;BME280;4683;50.864;12.086;2024-01-15T09:07:40;97358.44;;;1.66;100.00
9289;BME280;4683;50.864;12.086;2024-01-15T09:10:11;97361.03;;;1.66;100.00
9289;BME280;4683;50.864;12.086;2024-01-15T09:12:46;97360.72;;;1.69;100.00
9289;BME280;4683;50.864;12.086;2024-01-15T09:15:21;97363.31;;;1.77;100.00
9289;BME280;4683;50.864;12.086;2024-01-15T09:17:52;97368.63;;;1.84;100.00
9289;BME280;4683;50.864;12.086;2024-01-15T09:20:25;97364.41;;;1.91;100.00
9289;BME280;4683;50.864;12.086;2024-01-15T09:23:01;97355.63;;;1.84;100.00
9289;BME280;4683;50.864;12.086;2024-01-15T09:25:45;97349.63;;;1.84;100.00
9289;BME280;4683;50.864;12.086;2024-01-15T09:28:25;97352.53;;;1.89;100.00
9289;BME280;4683;50.864;12.086;2024-01-15T09:30:57;97360.00;;;1.92;100.00
9289;BME280;4683;50.864;12.086;2024-01-15T09:33:27;97355.78;;;1.91;100.00
9289;BME280;4683;50.864;12.086;2024-01-15T09:36:02;97357.72;;;1.89;100.00
9289;BME280;4683;50.864;12.086;2024-01-15T09:38:41;97359.69;;;1.87;100.00
9289;BME280;4683;50.864;12.086;2024-01-15T09:41:13;97356.16;;;1.71;100.00
9289;BME280;4683;50.864;12.086;2024-01-15T09:43:47;97354.16;;;1.82;100.00
9289;BME280;4683;50.864;12.086;2024-01-15T09:46:20;97354.53;;;1.78;100.00
9289;BME280;4683;50.864;12.086;2024-01-15T09:48:52;97351.25;;;1.76;100.00
9289;BME280;4683;50.864;12.086;2024-01-15T09:51:26;97355.16;;;1.81;100.00
9289;BME280;4683;50.864;12.086;2024-01-15T09:53:57;97351.69;;;1.96;100.00
9289;BME280;4683;50.864;12.086;2024-01-15T09:56:33;97352.19;;;2.00;100.00
9289;BME280;4683;50.864;12.086;2024-01-15T09:59:10;97355.53;;;2.09;100.00
9289;BME280;4683;50.864;12.086;2024-01-15T10:02:02;97334.91;;;2.07;100.00
9289;BME280;4683;50.864;12.086;2024-01-15T10:04:51;97346.97;;;2.00;100.00
9289;BME280;4683;50.864;12.086;2024-01-15T10:07:37;97339.31;;;1.98;100.00
9289;BME280;4683;50.864;12.086;2024-01-15T10:10:31;97338.78;;;2.11;100.00
9289;BME280;4683;50.864;12.086;2024-01-15T10:13:28;97329.63;;;2.23;100.00
9289;BME280;4683;50.864;12.086;2024-01-15T10:16:09;97319.53;;;2.28;100.00
9289;BME280;4683;50.864;12.086;2024-01-15T10:19:01;97324.22;;;2.33;100.00
9289;BME280;4683;50.864;12.086;2024-01-15T10:21:33;97325.88;;;2.26;100.00
9289;BME280;4683;50.864;12.086;2024-01-15T10:24:06;97315.59;;;2.33;100.00
9289;BME280;4683;50.864;12.086;2024-01-15T10:26:35;97321.38;;;2.43;100.00
9289;BME280;4683;50.864;12.086;2024-01-15T10:29:10;97322.91;;;2.60;100.00
9289;BME280;4683;50.864;12.086;2024-01-15T10:31:39;97314.81;;;2.55;100.00
9289;BME280;4683;50.864;12.086;2024-01-15T10:34:20;97308.91;;;2.61;100.00
9289;BME280;4683;50.864;12.086;2024-01-15T10:36:52;97311.09;;;2.72;100.00
9289;BME280;4683;50.864;12.086;2024-01-15T10:39:24;97313.06;;;2.70;100.00
9289;BME280;4683;50.864;12.086;2024-01-15T10:42:14;97321.16;;;2.75;100.00
9289;BME280;4683;50.864;12.086;2024-01-15T10:44:57;97309.19;;;2.66;100.00
9289;BME280;4683;50.864;12.086;2024-01-15T10:47:49;97304.16;;;2.65;100.00
9289;BME280;4683;50.864;12.086;2024-01-15T10:50:38;97288.56;;;2.42;100.00
9289;BME280;4683;50.864;12.086;2024-01-15T10:53:19;97289.81;;;2.46;100.00
9289;BME280;4683;50.864;12.086;2024-01-15T10:56:05;97302.09;;;2.60;100.00
9289;BME280;4683;50.864;12.086;2024-01-15T10:58:53;97290.16;;;2.43;100.00
9289;BME280;4683;50.864;12.086;2024-01-15T11:02:06;97312.50;;;2.60;100.00
9289;BME280;4683;50.864;12.086;2024-01-15T11:05:17;97298.44;;;2.69;100.00
9289;BME280;4683;50.864;12.086;2024-01-15T11:08:37;97289.56;;;2.78;100.00
9289;BME280;4683;50.864;12.086;2024-01-15T11:11:27;97286.19;;;2.93;100.00
9289;BME280;4683;50.864;12.086;2024-01-15T11:14:40;97286.72;;;2.88;100.00
9289;BME280;4683;50.864;12.086;2024-01-15T11:17:15;97288.47;;;2.96;100.00
9289;BME280;4683;50.864;12.086;2024-01-15T11:19:48;97299.97;;;3.01;100.00
9289;BME280;4683;50.864;12.086;2024-01-15T11:22:53;97296.16;;;3.04;100.00
9289;BME280;4683;50.864;12.086;2024-01-15T11:25:45;97297.22;;;2.95;100.00
9289;BME280;4683;50.864;12.086;2024-01-15T11:28:50;97293.72;;;2.88;100.00
9289;BME280;4683;50.864;12.086;2024-01-15T11:31:58;97289.88;;;2.98;100.00
9289;BME280;4683;50.864;12.086;2024-01-15T11:34:55;97304.00;;;3.04;100.00
9289;BME280;4683;50.864;12.086;2024-01-15T11:38:02;97290.59;;;2.92;100.00
9289;BME280;4683;50.864;12.086;2024-01-15T11:41:16;97298.75;;;2.89;100.00
9289;BME280;4683;50.864;12.086;2024-01-15T11:44:28;97291.69;;;2.98;100.00
9289;BME280;4683;50.864;12.086;2024-01-15T11:48:08;97294.84;;;3.08;100.00
9289;BME280;4683;50.864;12.086;2024-01-15T11:50:58;97285.75;;;3.04;100.00
9289;BME280;4683;50.864;12.086;2024-01-15T11:54:18;97295.22;;;3.05;100.00
9289;BME280;4683;50.864;12.086;2024-01-15T11:57:50;97295.09;;;2.98;100.00
9289;BME280;4683;50.864;12.086;2024-01-15T12:00:44;97287.75;;;3.02;100.00
9289;BME280;4683;50.864;12.086;2024-01-15T12:03:33;97278.25;;;3.09;100.00
9289;BME280;4683;50.864;12.086;2024-01-15T12:06:23;97278.59;;;3.21;100.00
9289;BME280;4683;50.864;12.086;2024-01-15T12:09:30;97279.78;;;3.18;100.00
9289;BME280;4683;50.864;12.086;2024-01-15T12:12:52;97274.19;;;3.21;100.00
9289;BME280;4683;50.864;12.086;2024-01-15T12:15:55;97268.56;;;3.33;100.00
9289;BME280;4683;50.864;12.086;2024-01-15T12:18:44;97268.19;;;3.21;100.00
9289;BME280;4683;50.864;12.086;2024-01-15T12:21:18;97266.84;;;3.40;100.00
9289;BME280;4683;50.864;12.086;2024-01-15T12:24:11;97257.94;;;3.49;100.00
9289;BME280;4683;50.864;12.086;2024-01-15T12:26:47;97256.50;;;3.61;100.00
9289;BME280;4683;50.864;12.086;2024-01-15T12:29:28;97252.63;;;3.57;100.00
9289;BME280;4683;50.864;12.086;2024-01-15T12:32:15;97248.16;;;3.51;100.00
9289;BME280;4683;50.864;12.086;2024-01-15T12:35:09;97256.25;;;3.56;100.00
9289;BME280;4683;50.864;12.086;2024-01-15T12:38:16;97251.19;;;3.69;100.00
9289;BME280;4683;50.864;12.086;2024-01-15T12:41:10;97257.13;;;3.63;100.00
9289;BME280;4683;50.864;12.086;2024-01-15T12:44:16;97250.00;;;3.72;100.00
9289;BME280;4683;50.864;12.086;2024-01-15T12:47:17;97266.56;;;3.79;100.00
9289;BME280;4683;50.864;12.086;2024-01-15T12:50:10;97265.91;;;3.92;100.00
9289;BME280;4683;50.864;12.086;2024-01-15T12:52:52;97256.28;;;3.92;100.00
9289;BME280;4683;50.864;12.086;2024-01-15T12:55:43;97265.47;;;3.88;100.00
9289;BME280;4683;50.864;12.086;2024-01-15T12:58:15;97266.38;;;3.80;100.00
9289;BME280;4683;50.864;12.086;2024-01-15T13:00:44;97269.22;;;3.86;100.00
9289;BME280;4683;50.864;12.086;2024-01-15T13:03:33;97259.84;;;3.55;100.00
9289;BME280;4683;50.864;12.086;2024-01-15T13:06:20;97269.00;;;3.51;100.00
9289;BME280;4683;50.864;12.086;2024-01-15T13:08:49;97265.59;;;3.65;100.00
9289;BME280;4683;50.864;12.086;2024-01-15T13:11:34;97268.47;;;3.41;100.00
9289;BME280;4683;50.864;12.086;2024-01-15T13:14:35;97264.50;;;3.45;100.00
9289;BME280;4683;50.864;12.086;2024-01-15T13:17:22;97270.53;;;3.45;100.00
9289;BME280;4683;50.864;12.086;2024-01-15T13:20:27;97266.56;;;3.49;100.00
9289;BME280;4683;50.864;12.086;2024-01-15T13:23:31;97264.88;;;3.56;100.00
9289;BME280;4683;50.864;12.086;2024-01-15T13:26:18;97273.03;;;3.53;100.00
9289;BME280;4683;50.864;12.086;2024-01-15T13:29:09;97271.44;;;3.23;100.00
9289;BME280;4683;50.864;12.086;2024-01-15T13:31:52;97269.63;;;3.23;100.00
9289;BME280;4683;50.864;12.086;2024-01-15T13:34:59;97266.47;;;3.13;100.00
9289;BME280;4683;50.864;12.086;2024-01-15T13:42:13;97266.63;;;2.97;100.00
9289;BME280;4683;50.864;12.086;2024-01-15T13:45:36;97276.94;;;2.90;100.00
9289;BME280;4683;50.864;12.086;2024-01-15T13:48:55;97282.56;;;2.79;100.00
9289;BME280;4683;50.864;12.086;2024-01-15T13:52:13;97287.88;;;2.86;100.00
9289;BME280;4683;50.864;12.086;2024-01-15T13:55:29;97287.13;;;2.77;100.00
9289;BME280;4683;50.864;12.086;2024-01-15T13:58:52;97281.50;;;2.73;100.00
9289;BME280;4683;50.864;12.086;2024-01-15T14:02:02;97287.31;;;2.75;100.00
9289;BME280;4683;50.864;12.086;2024-01-15T14:05:14;97295.47;;;2.72;100.00
9289;BME280;4683;50.864;12.086;2024-01-15T14:07:58;97289.56;;;2.78;100.00
9289;BME280;4683;50.864;12.086;2024-01-15T14:11:06;97293.72;;;2.88;100.00
9289;BME280;4683;50.864;12.086;2024-01-15T14:14:11;97299.19;;;2.78;100.00
9289;BME280;4683;50.864;12.086;2024-01-15T14:16:43;97302.16;;;2.90;100.00
9289;BME280;4683;50.864;12.086;2024-01-15T14:19:13;97297.75;;;2.90;100.00
9289;BME280;4683;50.864;12.086;2024-01-15T14:21:42;97296.16;;;2.89;100.00